createdAt,value
2019-03-27T00:03:34.609Z,2.37
2019-03-27T00:06:03.421Z,2.36
2019-03-27T00:08:32.273Z,2.33
2019-03-27T00:11:01.361Z,2.37
2019-03-27T00:13:30.152Z,2.39
2019-03-27T00:19:01.278Z,2.46
2019-03-27T00:21:29.802Z,2.50
2019-03-27T00:27:01.686Z,2.45
2019-03-27T00:29:30.552Z,2.41
2019-03-27T00:32:39.460Z,2.41
2019-03-27T00:41:30.277Z,2.49
2019-03-27T00:47:08.642Z,2.56
2019-03-27T00:49:37.471Z,2.56
2019-03-27T00:52:06.682Z,2.53
2019-03-27T00:54:35.893Z,2.58
2019-03-27T00:57:04.717Z,2.67
2019-03-27T01:00:13.378Z,2.61
2019-03-27T01:03:00.911Z,2.66
2019-03-27T01:05:29.390Z,2.58
2019-03-27T01:14:00.622Z,2.49
2019-03-27T01:16:29.462Z,2.51
2019-03-27T01:18:58.561Z,2.47
2019-03-27T01:21:27.607Z,2.41
2019-03-27T01:23:55.331Z,2.32
2019-03-27T01:26:42.885Z,2.24
2019-03-27T01:29:12.036Z,2.20
2019-03-27T01:34:42.764Z,2.24
2019-03-27T01:37:11.986Z,2.24
2019-03-27T01:39:41.198Z,2.28
2019-03-27T01:42:09.982Z,2.29
2019-03-27T01:44:38.400Z,2.40
2019-03-27T01:47:07.154Z,2.43
2019-03-27T01:52:56.747Z,2.40
2019-03-27T01:55:25.513Z,2.48
2019-03-27T01:57:54.331Z,2.41
2019-03-27T02:00:23.442Z,2.39
2019-03-27T02:02:52.262Z,2.34
2019-03-27T02:05:20.856Z,2.32
2019-03-27T02:07:49.387Z,2.24
2019-03-27T02:10:18.142Z,2.15
2019-03-27T02:12:47.061Z,2.06
2019-03-27T02:15:16.286Z,2.13
2019-03-27T02:17:45.027Z,2.19
2019-03-27T02:20:14.283Z,2.20
2019-03-27T02:22:43.436Z,2.21
2019-03-27T02:25:12.376Z,2.26
2019-03-27T02:27:41.171Z,2.32
2019-03-27T02:30:49.667Z,2.28
2019-03-27T02:33:30.089Z,2.31
2019-03-27T02:39:00.105Z,2.26
2019-03-27T02:41:29.243Z,2.27
2019-03-27T02:43:58.057Z,2.29
2019-03-27T02:46:26.937Z,2.33
2019-03-27T02:48:56.198Z,2.33
2019-03-27T02:51:25.281Z,2.32
2019-03-27T02:56:35.450Z,2.30
2019-03-27T02:59:04.551Z,2.29
2019-03-27T03:01:51.433Z,2.26
2019-03-27T03:04:20.654Z,2.26
2019-03-27T03:06:49.875Z,2.30
2019-03-27T03:09:18.631Z,2.45
2019-03-27T03:11:58.826Z,2.45
2019-03-27T03:17:27.459Z,2.48
2019-03-27T03:19:55.986Z,2.34
2019-03-27T03:22:36.707Z,2.29
2019-03-27T03:25:45.373Z,2.31
2019-03-27T03:28:13.882Z,2.25
2019-03-27T03:33:44.790Z,2.13
2019-03-27T03:39:46.592Z,2.28
2019-03-27T03:42:15.429Z,2.30
2019-03-27T03:44:44.531Z,2.27
2019-03-27T03:47:13.357Z,2.28
2019-03-27T03:49:42.571Z,2.25
2019-03-27T03:52:22.676Z,2.28
2019-03-27T03:55:31.540Z,2.31
2019-03-27T04:10:19.369Z,2.06
2019-03-27T04:13:07.263Z,1.99
2019-03-27T04:15:36.160Z,1.89
2019-03-27T04:21:27.103Z,1.83
2019-03-27T04:24:02.854Z,1.85
2019-03-27T04:26:33.477Z,1.94
2019-03-27T04:29:08.601Z,1.93
2019-03-27T04:31:56.151Z,1.92
2019-03-27T04:34:24.702Z,1.89
2019-03-27T04:36:53.808Z,1.85
2019-03-27T04:42:29.879Z,1.82
2019-03-27T04:44:58.302Z,1.91
2019-03-27T04:47:32.531Z,1.96
2019-03-27T04:50:04.637Z,2.02
2019-03-27T04:52:44.673Z,2.03
2019-03-27T04:55:13.903Z,2.09
2019-03-27T04:57:54.082Z,2.14
2019-03-27T05:00:23.257Z,2.06
2019-03-27T05:02:52.068Z,2.03
2019-03-27T05:05:20.504Z,2.03
2019-03-27T05:08:28.687Z,2.01
2019-03-27T05:10:57.230Z,1.95
2019-03-27T05:13:26.423Z,1.94
2019-03-27T05:16:06.670Z,1.83
2019-03-27T05:18:35.389Z,1.73
2019-03-27T05:21:03.878Z,1.68
2019-03-27T05:26:34.201Z,1.68
2019-03-27T05:29:03.278Z,1.71
2019-03-27T05:31:31.771Z,1.75
2019-03-27T05:34:00.597Z,1.75
2019-03-27T05:45:13.513Z,1.86
2019-03-27T05:47:42.842Z,2.01
2019-03-27T05:50:23.515Z,2.03
2019-03-27T05:53:04.262Z,2.05
2019-03-27T05:58:35.904Z,2.13
2019-03-27T06:04:07.037Z,2.08
2019-03-27T06:06:36.279Z,2.04
2019-03-27T06:12:26.617Z,2.05
2019-03-27T06:14:55.802Z,2.10
2019-03-27T06:17:24.977Z,2.12
2019-03-27T06:20:33.472Z,2.20
2019-03-27T06:23:01.967Z,2.23
2019-03-27T06:25:31.248Z,2.29
2019-03-27T06:27:59.431Z,2.32
2019-03-27T06:33:37.553Z,2.38
2019-03-27T06:36:06.442Z,2.49
2019-03-27T06:38:35.588Z,2.51
2019-03-27T06:41:16.515Z,2.47
2019-03-27T06:44:16.687Z,2.47
2019-03-27T06:46:45.933Z,2.52
2019-03-27T06:49:54.816Z,2.65
2019-03-27T06:52:34.851Z,2.76
2019-03-27T06:55:43.508Z,2.93
2019-03-27T06:58:12.614Z,3.04
2019-03-27T07:00:41.677Z,3.12
2019-03-27T07:03:10.489Z,3.10
2019-03-27T07:05:39.724Z,3.06
2019-03-27T07:11:21.853Z,2.83
2019-03-27T07:13:50.677Z,2.80
2019-03-27T07:16:59.549Z,2.92
2019-03-27T07:19:28.822Z,2.99
2019-03-27T07:28:08.125Z,3.23
2019-03-27T07:30:36.927Z,3.32
2019-03-27T07:33:06.166Z,3.47
2019-03-27T07:36:15.162Z,3.37
2019-03-27T07:38:54.812Z,3.33
2019-03-27T07:41:42.335Z,3.41
2019-03-27T07:44:11.538Z,3.63
2019-03-27T07:50:01.132Z,3.84
2019-03-27T07:52:41.837Z,3.97
2019-03-27T07:55:50.342Z,4.03
2019-03-27T08:01:20.682Z,3.88
2019-03-27T08:03:49.577Z,3.79
2019-03-27T08:06:18.689Z,3.77
2019-03-27T08:08:47.787Z,3.75
2019-03-27T08:11:16.717Z,3.77
2019-03-27T08:13:45.989Z,3.82
2019-03-27T08:16:14.886Z,3.88
2019-03-27T08:18:43.725Z,3.98
2019-03-27T08:21:12.663Z,4.03
2019-03-27T08:23:40.743Z,4.12
2019-03-27T08:26:08.856Z,4.21
2019-03-27T08:28:37.819Z,4.24
2019-03-27T08:31:06.037Z,4.28
2019-03-27T08:33:35.208Z,4.41
2019-03-27T08:36:04.323Z,4.35
2019-03-27T08:38:33.217Z,4.28
2019-03-27T08:41:02.141Z,4.22
2019-03-27T08:43:30.191Z,4.33
2019-03-27T08:45:59.531Z,4.47
2019-03-27T08:48:28.284Z,4.66
2019-03-27T08:50:57.638Z,4.76
2019-03-27T08:53:26.527Z,4.92
2019-03-27T08:55:55.689Z,5.09
2019-03-27T08:58:24.574Z,5.21
2019-03-27T09:01:24.692Z,5.29
2019-03-27T09:03:53.809Z,5.32
2019-03-27T09:06:33.161Z,5.44
2019-03-27T09:08:59.418Z,5.55
2019-03-27T09:11:28.442Z,5.73
2019-03-27T09:13:57.293Z,5.93
2019-03-27T09:16:26.463Z,6.13
2019-03-27T09:19:36.348Z,6.30
2019-03-27T09:22:15.747Z,6.23
2019-03-27T09:24:44.570Z,6.17
2019-03-27T09:27:13.417Z,6.29
2019-03-27T09:29:42.220Z,6.50
2019-03-27T09:32:23.078Z,6.79
2019-03-27T09:34:52.414Z,7.06
2019-03-27T09:40:24.273Z,7.22
2019-03-27T09:43:11.778Z,7.33
2019-03-27T09:48:50.119Z,7.72
2019-03-27T09:51:18.980Z,8.00
2019-03-27T09:53:47.878Z,7.93
2019-03-27T09:56:19.463Z,7.69
2019-03-27T09:58:54.279Z,7.41
2019-03-27T10:04:32.817Z,6.86
2019-03-27T10:07:01.209Z,6.88
2019-03-27T10:12:30.480Z,7.12
2019-03-27T10:14:59.574Z,7.33
2019-03-27T10:20:27.350Z,7.36
2019-03-27T10:22:56.561Z,7.53
2019-03-27T10:25:25.462Z,8.08
2019-03-27T10:27:53.973Z,8.81
2019-03-27T10:30:23.102Z,9.30
2019-03-27T10:33:32.060Z,9.50
2019-03-27T10:36:01.012Z,8.95
2019-03-27T10:38:51.211Z,8.30
2019-03-27T10:41:19.713Z,7.71
2019-03-27T10:43:48.917Z,7.24
2019-03-27T10:46:17.707Z,7.24
2019-03-27T10:48:52.767Z,8.26
2019-03-27T10:51:17.560Z,8.49
2019-03-27T10:53:46.653Z,8.68
2019-03-27T10:56:15.525Z,8.42
2019-03-27T10:58:44.403Z,8.56
2019-03-27T11:01:13.598Z,8.83
2019-03-27T11:03:42.260Z,8.97
2019-03-27T11:06:11.068Z,8.59
2019-03-27T11:08:39.520Z,8.10
2019-03-27T11:11:08.754Z,7.81
2019-03-27T11:13:37.254Z,7.48
2019-03-27T11:16:06.064Z,7.37
2019-03-27T11:18:34.497Z,7.26
2019-03-27T11:21:03.402Z,7.15
2019-03-27T11:23:32.713Z,7.09
2019-03-27T11:26:01.588Z,6.97
2019-03-27T11:28:30.456Z,6.73
2019-03-27T11:34:19.957Z,8.07
2019-03-27T11:40:29.296Z,11.64
2019-03-27T11:42:57.825Z,12.50
2019-03-27T11:45:26.666Z,12.39
2019-03-27T11:47:55.452Z,11.79
2019-03-27T11:51:03.896Z,11.28
2019-03-27T11:54:12.843Z,11.49
2019-03-27T11:56:41.353Z,12.37
2019-03-27T11:59:09.883Z,12.69
2019-03-27T12:01:43.388Z,12.98
2019-03-27T12:04:16.316Z,12.59
2019-03-27T12:06:57.261Z,11.97
2019-03-27T12:09:26.463Z,11.10
2019-03-27T12:11:55.191Z,10.18
2019-03-27T12:14:24.315Z,9.60
2019-03-27T12:16:53.614Z,9.63
2019-03-27T12:19:22.448Z,9.77
2019-03-27T12:21:54.562Z,9.90
2019-03-27T12:24:29.022Z,10.00
2019-03-27T12:27:37.529Z,10.07
2019-03-27T12:33:26.955Z,9.54
2019-03-27T12:35:55.714Z,8.99
2019-03-27T12:41:38.212Z,8.22
2019-03-27T12:44:06.463Z,8.00
2019-03-27T12:46:34.956Z,7.75
2019-03-27T12:49:04.303Z,7.53
2019-03-27T12:51:33.458Z,7.36
2019-03-27T12:54:02.419Z,7.21
2019-03-27T12:57:11.365Z,7.12
2019-03-27T12:59:40.639Z,7.16
2019-03-27T13:05:19.035Z,7.15
2019-03-27T13:07:50.158Z,7.31
2019-03-27T13:10:24.649Z,7.48
2019-03-27T13:12:54.043Z,7.75
2019-03-27T13:15:22.935Z,8.16
2019-03-27T13:17:51.418Z,8.49
2019-03-27T13:23:22.939Z,8.89
2019-03-27T13:25:51.369Z,8.74
2019-03-27T13:28:20.281Z,8.42
2019-03-27T13:30:49.442Z,8.22
2019-03-27T13:33:18.810Z,7.98
2019-03-27T13:35:47.756Z,7.77
2019-03-27T13:38:16.736Z,7.50
2019-03-27T13:40:46.121Z,7.29
2019-03-27T13:43:15.081Z,7.21
2019-03-27T13:45:43.978Z,7.17
2019-03-27T13:48:12.794Z,7.19
2019-03-27T13:50:41.928Z,7.28
2019-03-27T13:53:10.869Z,7.28
2019-03-27T13:55:39.993Z,7.31
2019-03-27T13:58:08.749Z,7.35
2019-03-27T14:00:37.583Z,7.32
2019-03-27T14:03:26.005Z,7.26
2019-03-27T14:06:06.458Z,7.21
2019-03-27T14:08:35.418Z,7.14
2019-03-27T14:11:44.398Z,7.08
2019-03-27T14:14:12.899Z,7.02
2019-03-27T14:16:41.724Z,7.00
2019-03-27T14:19:10.644Z,7.01
2019-03-27T14:21:55.046Z,7.05
2019-03-27T14:24:22.162Z,7.06
2019-03-27T14:32:54.027Z,7.57
2019-03-27T14:36:02.913Z,7.75
2019-03-27T14:38:31.423Z,7.92
2019-03-27T14:41:00.270Z,8.07
2019-03-27T14:43:41.627Z,8.18
2019-03-27T14:46:10.708Z,8.14
2019-03-27T14:48:39.283Z,8.11
2019-03-27T14:51:08.470Z,8.00
2019-03-27T14:53:37.338Z,7.93
2019-03-27T14:59:27.408Z,7.75
2019-03-27T15:05:37.111Z,7.54
2019-03-27T15:11:07.900Z,7.27
2019-03-27T15:13:36.822Z,7.21
2019-03-27T15:16:06.038Z,7.16
2019-03-27T15:19:14.586Z,7.04
2019-03-27T15:21:43.473Z,6.92
2019-03-27T15:24:12.395Z,6.86
2019-03-27T15:26:41.135Z,6.83
2019-03-27T15:29:10.129Z,6.85
2019-03-27T15:34:19.864Z,6.85
2019-03-27T15:36:49.144Z,7.02
2019-03-27T15:39:18.400Z,6.95
2019-03-27T15:41:47.248Z,6.88
2019-03-27T15:46:56.160Z,6.74
2019-03-27T15:49:24.615Z,6.68
2019-03-27T15:51:53.473Z,6.58
2019-03-27T15:54:22.323Z,6.42
2019-03-27T15:56:51.299Z,6.33
2019-03-27T16:02:48.760Z,6.24
2019-03-27T16:05:17.615Z,6.32
2019-03-27T16:07:46.909Z,6.35
2019-03-27T16:10:18.374Z,6.40
2019-03-27T16:12:46.623Z,6.48
2019-03-27T16:15:55.515Z,6.49
2019-03-27T16:18:36.064Z,6.44
2019-03-27T16:21:05.278Z,6.39
2019-03-27T16:23:34.507Z,6.49
2019-03-27T16:26:03.729Z,6.48
2019-03-27T16:28:32.656Z,6.43
2019-03-27T16:34:12.935Z,6.15
2019-03-27T16:36:42.058Z,6.15
2019-03-27T16:39:51.074Z,6.14
2019-03-27T16:42:20.193Z,6.15
2019-03-27T16:44:49.492Z,6.23
2019-03-27T16:47:30.671Z,6.30
2019-03-27T16:49:59.723Z,6.31
2019-03-27T16:52:29.007Z,6.35
2019-03-27T16:54:57.583Z,6.43
2019-03-27T16:57:26.913Z,6.48
2019-03-27T17:00:15.580Z,6.53
2019-03-27T17:03:03.614Z,6.50
2019-03-27T17:05:32.253Z,6.37
2019-03-27T17:08:01.577Z,6.16
2019-03-27T17:11:10.544Z,6.03
2019-03-27T17:13:39.289Z,5.97
2019-03-27T17:16:08.545Z,5.92
2019-03-27T17:21:37.735Z,5.79
2019-03-27T17:24:05.965Z,5.75
2019-03-27T17:26:34.958Z,5.74
2019-03-27T17:29:43.944Z,5.67
2019-03-27T17:35:14.390Z,5.57
2019-03-27T17:43:54.648Z,5.37
2019-03-27T17:46:23.770Z,5.31
2019-03-27T17:52:13.184Z,5.24
2019-03-27T17:54:42.339Z,5.20
2019-03-27T17:57:11.217Z,5.19
2019-03-27T18:00:20.168Z,5.23
2019-03-27T18:02:49.093Z,5.18
2019-03-27T18:12:00.589Z,4.99
2019-03-27T18:17:49.904Z,4.95
2019-03-27T18:20:19.182Z,4.88
2019-03-27T18:22:48.485Z,4.87
2019-03-27T18:25:57.449Z,4.79
2019-03-27T18:31:27.736Z,4.55
2019-03-27T18:34:36.719Z,4.40
2019-03-27T18:37:36.534Z,4.28
2019-03-27T18:43:27.243Z,4.09
2019-03-27T18:49:06.164Z,4.08
2019-03-27T18:51:47.198Z,4.06
2019-03-27T18:57:17.178Z,4.13
2019-03-27T18:59:46.132Z,4.16
2019-03-27T19:02:26.873Z,4.17
2019-03-27T19:04:55.456Z,4.16
2019-03-27T19:08:04.452Z,4.17
2019-03-27T19:10:33.394Z,4.18
2019-03-27T19:16:04.646Z,4.13
2019-03-27T19:18:33.245Z,4.04
2019-03-27T19:21:02.523Z,3.96
2019-03-27T19:26:44.980Z,3.72
2019-03-27T19:29:45.171Z,3.59
2019-03-27T19:32:33.202Z,3.55
2019-03-27T19:37:23.870Z,3.49
2019-03-27T19:39:52.104Z,3.41
2019-03-27T19:45:40.873Z,3.26
2019-03-27T19:48:09.400Z,3.14
2019-03-27T19:50:38.558Z,3.03
2019-03-27T19:53:07.547Z,2.96
2019-03-27T19:55:48.239Z,2.89
2019-03-27T19:58:17.449Z,2.81
2019-03-27T20:00:46.770Z,2.72
2019-03-27T20:06:36.795Z,2.50
2019-03-27T20:09:46.803Z,2.45
2019-03-27T20:12:16.101Z,2.41
2019-03-27T20:14:44.725Z,2.28
2019-03-27T20:17:13.318Z,2.22
2019-03-27T20:19:42.552Z,2.20
2019-03-27T20:22:11.913Z,2.20
2019-03-27T20:24:41.494Z,2.13
2019-03-27T20:27:51.299Z,2.12
2019-03-27T20:37:03.516Z,1.83
2019-03-27T20:39:32.726Z,1.69
2019-03-27T20:42:41.670Z,1.68
2019-03-27T20:45:10.608Z,1.64
2019-03-27T20:47:39.179Z,1.69
2019-03-27T20:50:08.497Z,1.71
2019-03-27T20:52:37.893Z,1.68
2019-03-27T20:55:07.295Z,1.70
2019-03-27T20:57:36.673Z,1.75
2019-03-27T21:00:46.041Z,1.62
2019-03-27T21:06:28.459Z,1.66
2019-03-27T21:08:57.643Z,1.65
2019-03-27T21:11:26.940Z,1.62
2019-03-27T21:13:55.461Z,1.58
2019-03-27T21:16:24.422Z,1.57
2019-03-27T21:18:52.943Z,1.56
2019-03-27T21:24:23.148Z,1.59
2019-03-27T21:26:52.312Z,1.62
2019-03-27T21:29:21.614Z,1.55
2019-03-27T21:32:30.664Z,1.50
2019-03-27T21:38:20.532Z,1.39
2019-03-27T21:47:01.240Z,1.24
2019-03-27T21:49:49.326Z,1.23
2019-03-27T21:55:42.992Z,1.20
2019-03-27T21:58:17.289Z,1.16
2019-03-27T22:00:46.670Z,1.12
2019-03-27T22:03:36.202Z,1.05
2019-03-27T22:06:05.890Z,0.97
2019-03-27T22:09:14.893Z,0.92
2019-03-27T22:12:03.476Z,0.93
2019-03-27T22:14:53.515Z,0.82
2019-03-27T22:17:23.254Z,0.82
2019-03-27T22:19:52.638Z,0.69
2019-03-27T22:22:41.529Z,0.58
2019-03-27T22:25:09.950Z,0.49
2019-03-27T22:27:39.602Z,0.51
2019-03-27T22:33:11.573Z,0.66
2019-03-27T22:41:44.943Z,0.54
2019-03-27T22:44:14.624Z,0.66
2019-03-27T22:46:43.705Z,0.50
2019-03-27T22:49:12.981Z,0.43
2019-03-27T22:51:42.406Z,0.40
2019-03-27T22:54:11.312Z,0.32
2019-03-27T22:56:52.001Z,0.37
2019-03-27T22:59:41.071Z,0.41
2019-03-27T23:02:10.453Z,0.48
2019-03-27T23:08:11.914Z,0.40
2019-03-27T23:10:53.313Z,0.23
2019-03-27T23:13:41.844Z,0.12
2019-03-27T23:16:11.885Z,-0.16
2019-03-27T23:18:59.878Z,-0.16
2019-03-27T23:21:47.899Z,-0.21
2019-03-27T23:26:56.966Z,-0.06
2019-03-27T23:30:06.009Z,-0.09
2019-03-27T23:33:14.566Z,-0.03
2019-03-27T23:36:24.143Z,0.08
2019-03-27T23:39:32.261Z,0.03
2019-03-27T23:42:01.514Z,0.06
2019-03-27T23:44:31.545Z,-0.11
2019-03-27T23:47:20.331Z,-0.25
2019-03-27T23:49:49.775Z,-0.24
2019-03-27T23:52:37.639Z,-0.23
2019-03-27T23:55:18.374Z,-0.20
2019-03-27T23:58:28.217Z,-0.35
